Decoded Metar for KPGV (PITT GREENVILLE in NC, USA) (IATA:PGV) | Meteo·Mobile Aviation Weather
aviador You're here:

KPGV Decoded Metar

PITT GREENVILLE in NC, USA
Report Time2018-11-18 01:10:00
UTC Time2018-11-18 01:19:35
Flight Rules mvfr MVFR
WindCalm
Visibility4828 m
Phenomena:Mist
Clouds:N/A
CeilingNone
Temp06°C (ISA -9)
Dew Point06°C (100% RH)
AAT5.1°C
QNH1026 hPa
Density Alt-1,368 ft
Elevation26 ft
Report Wrong Elevation
Raw Report
METAR KPGV 180110Z AUTO 00000KT 3SM BR CLR 06/06 A3030 RMK AO2=

Extra information for KPGV:More info

Metar Taf Metar & Taf Last 4 Metars F.Rules Stats Wind Profile Meteogram Temp Stats Airport Information Weather charts Add Link Nearby VenuesMetar ALERT Operation Metar Decoded Social comments

AIRNAV info for KPGV